Letourneau, Mississippi
Current Conditions -  °F | °C
As of 2:35 PM on Friday 21 Nov 2014 (Local Time) from KVKS Reporting Station
Broken Clouds Broken Clouds  
Wind Chill: 70°   Ceiling: 9000
Heat Index: 70°   Visibility: 10mi
Dew Point: 43°   Wind: 9mph
Humidity: 38%   Direction: 150°SSE
Pressure: 30.23"   Gusts: NA
Location:  32.3914°N, 90.8257°W
Report Text: KVKS 212035Z AUTO 15008KT 10SM BKN090 21/06 A3023 RMK A01
Loading
Personal Weather Stations






























Interactive Weather Map New forecast layout! Learn more

10-Day Weather Forecast

Advertisements
Track Severe Weather on mobile